Time;durP1;ratioP1;P1;durP2;ratioP2;P2;SDS_P1;SDS_P2;PMS_P1;PMS_P2;Temp;Humidity;BMP_temperature;BMP_pressure;BME280_temperature;BME280_humidity;BME280_pressure;Samples;Min_cycle;Max_cycle;Signal;HPM_P1;HPM_P2
2022/10/23 00:01:53;;;;;;;16.17;10.30;;;12.60;99.90;;;;;;5043338;28;20203;-45
2022/10/23 00:04:24;;;;;;;13.50;10.47;;;12.50;99.90;;;;;;5036968;28;20199;-44
2022/10/23 00:06:51;;;;;;;11.87;9.40;;;12.50;99.90;;;;;;5042697;28;20195;-45
2022/10/23 00:09:23;;;;;;;13.80;9.50;;;12.50;99.90;;;;;;5045985;28;20556;-47
2022/10/23 00:11:51;;;;;;;14.90;9.60;;;12.40;99.90;;;;;;5027467;28;20227;-45
2022/10/23 00:14:20;;;;;;;14.77;10.53;;;12.40;99.90;;;;;;5044920;28;20200;-42
2022/10/23 00:16:47;;;;;;;13.07;11.40;;;12.40;99.90;;;;;;5041282;28;20210;-43
2022/10/23 00:19:14;;;;;;;15.20;9.77;;;12.30;99.90;;;;;;5038306;28;20600;-43
2022/10/23 00:21:41;;;;;;;11.33;10.07;;;12.30;99.90;;;;;;5041673;28;20250;-44
2022/10/23 00:24:09;;;;;;;22.63;11.10;;;12.20;99.90;;;;;;5044549;28;20206;-43
2022/10/23 00:26:39;;;;;;;11.73;9.87;;;12.20;99.90;;;;;;5030781;28;20214;-41
2022/10/23 00:29:07;;;;;;;21.10;10.77;;;12.20;99.90;;;;;;5042819;28;20221;-43
2022/10/23 00:31:34;;;;;;;12.67;10.10;;;12.10;99.90;;;;;;5042079;28;20219;-44
2022/10/23 00:34:01;;;;;;;16.43;10.60;;;12.10;99.90;;;;;;5034738;28;21542;-45
2022/10/23 00:36:27;;;;;;;16.27;10.97;;;12.10;99.90;;;;;;5043343;28;20187;-45
2022/10/23 00:38:55;;;;;;;12.90;10.70;;;12.20;99.90;;;;;;5033664;28;20187;-41
2022/10/23 00:41:27;;;;;;;17.33;10.80;;;12.20;99.90;;;;;;5045354;28;20223;-45
2022/10/23 00:43:57;;;;;;;11.77;9.83;;;12.10;99.90;;;;;;5025885;28;20203;-42
2022/10/23 00:46:24;;;;;;;13.40;9.63;;;12.10;99.90;;;;;;5044851;28;20202;-44
2022/10/23 00:48:50;;;;;;;13.93;9.50;;;11.90;99.90;;;;;;5034545;28;20203;-42
2022/10/23 00:51:17;;;;;;;14.07;10.43;;;11.90;99.90;;;;;;5037982;28;20227;-42
2022/10/23 00:53:45;;;;;;;13.33;9.07;;;11.90;99.90;;;;;;5038635;28;20219;-42
2022/10/23 00:56:11;;;;;;;14.17;9.87;;;11.90;99.90;;;;;;5044048;28;20203;-42
2022/10/23 00:58:39;;;;;;;15.57;10.50;;;11.80;99.90;;;;;;5026608;28;20556;-42
2022/10/23 01:01:16;;;;;;;15.80;10.83;;;11.80;99.90;;;;;;5044507;28;20226;-43
2022/10/23 01:03:43;;;;;;;21.70;12.13;;;11.80;99.90;;;;;;5039293;28;20249;-46
2022/10/23 01:06:16;;;;;;;21.53;12.20;;;11.90;99.90;;;;;;5036743;28;20219;-44
2022/10/23 01:08:49;;;;;;;21.23;11.93;;;11.90;99.90;;;;;;5040952;28;20743;-43
2022/10/23 01:11:22;;;;;;;15.10;11.63;;;12.00;99.90;;;;;;5024654;28;20227;-41
2022/10/23 01:13:59;;;;;;;19.67;12.47;;;12.00;99.90;;;;;;5022345;28;20226;-41
2022/10/23 01:16:33;;;;;;;14.97;11.07;;;12.00;99.90;;;;;;5042539;28;20245;-44
2022/10/23 01:19:10;;;;;;;17.63;10.50;;;12.00;99.90;;;;;;5041902;28;20277;-46
2022/10/23 01:21:49;;;;;;;17.93;10.17;;;11.90;99.90;;;;;;5036812;28;20230;-47
2022/10/23 01:24:30;;;;;;;19.13;10.53;;;11.90;99.90;;;;;;5032144;28;20459;-42
2022/10/23 01:27:15;;;;;;;14.67;9.80;;;11.80;99.90;;;;;;5027174;28;20620;-47
2022/10/23 01:29:45;;;;;;;14.80;10.47;;;11.70;99.90;;;;;;5026192;28;20272;-44
2022/10/23 01:32:16;;;;;;;14.20;9.63;;;11.70;99.90;;;;;;5039175;28;20310;-45
2022/10/23 01:34:47;;;;;;;14.83;11.27;;;11.60;99.90;;;;;;5043422;28;20880;-43
2022/10/23 01:37:19;;;;;;;15.90;10.93;;;11.60;99.90;;;;;;5032287;28;20192;-43
2022/10/23 01:39:51;;;;;;;14.23;10.37;;;11.60;99.90;;;;;;5041734;28;20250;-43
2022/10/23 01:42:24;;;;;;;15.77;11.70;;;11.60;99.90;;;;;;5042230;28;20199;-43
2022/10/23 01:44:56;;;;;;;18.77;11.70;;;11.50;99.90;;;;;;5020608;28;20214;-42
2022/10/23 01:47:28;;;;;;;14.30;10.37;;;11.60;99.90;;;;;;5042881;28;20511;-45
2022/10/23 01:50:04;;;;;;;15.03;10.27;;;11.60;99.90;;;;;;5034971;28;20210;-42
2022/10/23 01:52:31;;;;;;;16.37;10.70;;;11.60;99.90;;;;;;5034837;28;20592;-46
2022/10/23 01:55:00;;;;;;;17.93;11.60;;;11.60;99.90;;;;;;5038893;28;20237;-43
2022/10/23 01:57:31;;;;;;;12.83;10.40;;;11.60;99.90;;;;;;5042319;28;20207;-43
2022/10/23 02:00:03;;;;;;;16.03;11.17;;;11.60;99.90;;;;;;5024570;28;20284;-47
2022/10/23 02:02:33;;;;;;;16.23;11.53;;;11.60;99.90;;;;;;5041547;28;20207;-43
2022/10/23 02:05:05;;;;;;;15.47;11.93;;;11.60;99.90;;;;;;5039879;28;20200;-43
2022/10/23 02:07:33;;;;;;;13.10;10.23;;;11.60;99.90;;;;;;5034413;28;20231;-44
2022/10/23 02:10:00;;;;;;;17.67;10.90;;;11.60;99.90;;;;;;5040282;28;20560;-42
2022/10/23 02:12:36;;;;;;;14.93;10.33;;;11.60;99.90;;;;;;5042123;28;20298;-45
2022/10/23 02:15:13;;;;;;;15.40;9.70;;;11.50;99.90;;;;;;5022524;28;20757;-44
2022/10/23 02:17:47;;;;;;;16.73;11.13;;;11.50;99.90;;;;;;5038427;28;20199;-43
2022/10/23 02:20:20;;;;;;;16.17;10.13;;;11.50;99.90;;;;;;5039003;28;20194;-42
2022/10/23 02:22:56;;;;;;;17.27;10.30;;;11.40;99.90;;;;;;5032808;28;20230;-41
2022/10/23 02:25:30;;;;;;;12.50;10.40;;;11.40;99.90;;;;;;5033493;28;20199;-43
2022/10/23 02:28:03;;;;;;;18.27;11.83;;;11.40;99.90;;;;;;5039812;28;20237;-45
2022/10/23 02:30:41;;;;;;;18.73;9.37;;;11.40;99.90;;;;;;5025716;28;20209;-42
2022/10/23 02:33:12;;;;;;;16.50;9.37;;;11.40;99.90;;;;;;5036937;28;20215;-43
2022/10/23 02:35:40;;;;;;;15.10;10.13;;;11.40;99.90;;;;;;5041767;28;20247;-46
2022/10/23 02:38:30;;;;;;;15.00;9.73;;;11.40;99.90;;;;;;5031517;28;20202;-44
2022/10/23 02:41:08;;;;;;;16.17;10.97;;;11.30;99.90;;;;;;5040767;28;20707;-45
2022/10/23 02:43:45;;;;;;;16.73;9.63;;;11.20;99.90;;;;;;5041289;28;20203;-45
2022/10/23 02:46:20;;;;;;;15.10;10.67;;;11.20;99.90;;;;;;5023749;28;20199;-45
2022/10/23 02:48:53;;;;;;;13.57;9.53;;;11.10;99.90;;;;;;5037891;28;20289;-45
2022/10/23 02:51:28;;;;;;;13.23;10.13;;;11.20;99.90;;;;;;5053259;28;20219;-44
2022/10/23 02:54:04;;;;;;;15.33;9.87;;;11.10;99.90;;;;;;5034512;28;20233;-46
2022/10/23 02:56:40;;;;;;;12.53;9.37;;;11.10;99.90;;;;;;5040057;28;20272;-42
2022/10/23 02:59:15;;;;;;;13.40;9.03;;;11.00;99.90;;;;;;5039046;28;20193;-47
2022/10/23 03:01:49;;;;;;;12.40;9.60;;;11.00;99.90;;;;;;5026246;28;20250;-44
2022/10/23 03:04:18;;;;;;;14.07;9.70;;;10.90;99.90;;;;;;5053494;28;20943;-45
2022/10/23 03:06:49;;;;;;;16.47;10.00;;;10.90;99.90;;;;;;5043145;28;20197;-45
2022/10/23 03:09:17;;;;;;;9.60;8.47;;;10.90;99.90;;;;;;5035402;28;20239;-42
2022/10/23 03:11:44;;;;;;;15.80;9.77;;;10.80;99.90;;;;;;5047450;28;20251;-43
2022/10/23 03:14:13;;;;;;;18.70;10.03;;;10.90;99.90;;;;;;5042796;28;20203;-45
2022/10/23 03:16:40;;;;;;;13.03;8.60;;;10.90;99.90;;;;;;5031401;28;20211;-44
2022/10/23 03:19:09;;;;;;;12.90;9.80;;;10.90;99.90;;;;;;5041822;28;20249;-42
2022/10/23 03:21:36;;;;;;;14.47;9.93;;;10.90;99.90;;;;;;5040205;28;20249;-42
2022/10/23 03:24:07;;;;;;;18.23;9.93;;;10.90;99.90;;;;;;5033470;28;20194;-43
2022/10/23 03:26:40;;;;;;;15.67;9.67;;;10.80;99.90;;;;;;5045548;28;20253;-44
2022/10/23 03:29:07;;;;;;;16.97;10.00;;;10.80;99.90;;;;;;5041691;28;20203;-44
2022/10/23 03:31:41;;;;;;;14.00;8.90;;;10.70;99.90;;;;;;5029961;28;20711;-42
2022/10/23 03:34:10;;;;;;;10.57;8.57;;;10.70;99.90;;;;;;5039955;28;20253;-43
2022/10/23 03:36:39;;;;;;;12.63;9.23;;;10.70;99.90;;;;;;5040417;28;20215;-46
2022/10/23 03:39:07;;;;;;;11.77;8.47;;;10.60;99.90;;;;;;5042294;28;20282;-44
2022/10/23 03:41:34;;;;;;;12.33;8.33;;;10.50;99.90;;;;;;5037158;28;20235;-45
2022/10/23 03:44:01;;;;;;;12.43;9.07;;;10.50;99.90;;;;;;5041245;28;20203;-43
2022/10/23 03:46:28;;;;;;;14.17;9.87;;;10.40;99.90;;;;;;5046471;28;20202;-43
2022/10/23 03:48:57;;;;;;;14.63;9.27;;;10.50;99.90;;;;;;5026166;28;20222;-44
2022/10/23 03:51:26;;;;;;;20.23;9.93;;;10.50;99.90;;;;;;5035614;28;20227;-45
2022/10/23 03:53:52;;;;;;;20.13;10.70;;;10.50;99.90;;;;;;5043303;28;20223;-44
2022/10/23 03:56:21;;;;;;;23.73;10.53;;;10.50;99.90;;;;;;5034950;28;20361;-44
2022/10/23 03:58:48;;;;;;;21.27;10.77;;;10.50;99.90;;;;;;5044637;28;20298;-44
2022/10/23 04:01:14;;;;;;;26.30;11.10;;;10.50;99.90;;;;;;5041994;28;20218;-45
2022/10/23 04:03:41;;;;;;;29.33;11.27;;;10.50;99.90;;;;;;5029001;28;20199;-45
2022/10/23 04:06:09;;;;;;;61.30;11.63;;;10.50;99.90;;;;;;5034888;28;20926;-45
2022/10/23 04:08:37;;;;;;;32.53;10.67;;;10.50;99.90;;;;;;5045604;28;20707;-43
2022/10/23 04:11:11;;;;;;;30.63;12.57;;;10.40;99.90;;;;;;5033031;28;20223;-44
2022/10/23 04:13:45;;;;;;;48.57;11.00;;;10.40;99.90;;;;;;5038640;28;20311;-45
2022/10/23 04:16:12;;;;;;;73.70;12.70;;;10.50;99.90;;;;;;5041432;28;20195;-44
2022/10/23 04:18:40;;;;;;;50.13;12.13;;;10.50;99.90;;;;;;5026503;28;20705;-44
2022/10/23 04:21:11;;;;;;;45.30;12.20;;;10.50;99.90;;;;;;5033563;28;20234;-42
2022/10/23 04:23:39;;;;;;;32.40;11.23;;;10.50;99.90;;;;;;5043497;28;20195;-44
2022/10/23 04:26:11;;;;;;;37.73;11.57;;;10.50;99.90;;;;;;5034482;28;20999;-40
2022/10/23 04:28:38;;;;;;;21.83;11.10;;;10.50;99.90;;;;;;5036078;28;20217;-46
2022/10/23 04:31:05;;;;;;;33.30;10.77;;;10.50;99.90;;;;;;5039714;28;20229;-44
2022/10/23 04:33:33;;;;;;;30.10;10.73;;;10.50;99.90;;;;;;5027467;28;20215;-43
2022/10/23 04:36:00;;;;;;;32.67;11.57;;;10.40;99.90;;;;;;5038291;28;20580;-47
2022/10/23 04:38:28;;;;;;;30.90;11.70;;;10.40;99.90;;;;;;5043021;28;20231;-42
2022/10/23 04:40:55;;;;;;;22.53;10.50;;;10.40;99.90;;;;;;5042208;28;20234;-41
2022/10/23 04:43:22;;;;;;;21.80;11.03;;;10.40;99.90;;;;;;5034677;28;20203;-42
2022/10/23 04:45:50;;;;;;;49.37;10.73;;;10.50;99.90;;;;;;5044639;28;20683;-45
2022/10/23 04:48:17;;;;;;;37.53;10.83;;;10.40;99.90;;;;;;5026401;28;20215;-45
2022/10/23 04:51:11;;;;;;;23.10;10.67;;;10.40;99.90;;;;;;5036075;28;20911;-45
2022/10/23 04:53:58;;;;;;;26.83;10.20;;;10.40;99.90;;;;;;5032612;28;20317;-46
2022/10/23 04:56:41;;;;;;;28.77;11.63;;;10.40;99.90;;;;;;5043060;28;20273;-45
2022/10/23 04:59:13;;;;;;;36.63;10.40;;;10.40;99.90;;;;;;5032700;28;20951;-44
2022/10/23 05:01:41;;;;;;;30.37;10.57;;;10.40;99.90;;;;;;5043882;28;20220;-42
2022/10/23 05:04:09;;;;;;;32.00;9.57;;;10.40;99.90;;;;;;5023019;28;20204;-47
2022/10/23 05:07:11;;;;;;;28.37;9.67;;;10.40;99.90;;;;;;5030349;28;20211;-42
2022/10/23 05:10:06;;;;;;;20.30;9.17;;;10.40;99.90;;;;;;5034345;28;20199;-45
2022/10/23 05:12:48;;;;;;;24.40;9.87;;;10.40;99.90;;;;;;5042760;28;20270;-44
2022/10/23 05:15:15;;;;;;;34.70;10.27;;;10.30;99.90;;;;;;5031842;28;20208;-43
2022/10/23 05:17:45;;;;;;;25.77;10.13;;;10.30;99.90;;;;;;5044375;28;20703;-43
2022/10/23 05:20:18;;;;;;;14.77;9.30;;;10.30;99.90;;;;;;5026104;28;20216;-42
2022/10/23 05:22:47;;;;;;;15.93;9.27;;;10.30;99.90;;;;;;5037559;28;20231;-46
2022/10/23 05:25:15;;;;;;;17.43;9.13;;;10.30;99.90;;;;;;5035089;28;20400;-42
2022/10/23 05:27:47;;;;;;;20.53;9.40;;;10.30;99.90;;;;;;5042500;28;20200;-43
2022/10/23 05:30:16;;;;;;;14.93;9.03;;;10.30;99.90;;;;;;5025117;28;21627;-43
2022/10/23 05:32:44;;;;;;;15.07;8.77;;;10.20;99.90;;;;;;5029776;28;20253;-41
2022/10/23 05:35:15;;;;;;;32.63;9.57;;;10.20;99.90;;;;;;5008965;28;20227;-42
2022/10/23 05:37:47;;;;;;;19.37;9.60;;;10.20;99.90;;;;;;5033640;28;20217;-43
2022/10/23 05:40:21;;;;;;;16.17;9.10;;;10.20;99.90;;;;;;5038085;28;20336;-43
2022/10/23 05:42:50;;;;;;;14.13;8.63;;;10.20;99.90;;;;;;5039302;28;20970;-44
2022/10/23 05:45:21;;;;;;;13.50;9.07;;;10.20;99.90;;;;;;5037777;28;20227;-43
2022/10/23 05:48:19;;;;;;;13.93;9.40;;;10.20;99.90;;;;;;5034014;28;20203;-44
2022/10/23 05:51:08;;;;;;;13.60;9.13;;;10.10;99.90;;;;;;5022808;28;20238;-41
2022/10/23 05:53:43;;;;;;;15.10;9.97;;;10.10;99.90;;;;;;5028962;28;21002;-41
2022/10/23 05:56:30;;;;;;;12.40;8.77;;;10.10;99.90;;;;;;5038734;28;20222;-41
2022/10/23 05:59:19;;;;;;;10.53;8.73;;;10.10;99.90;;;;;;5032530;28;20286;-45
2022/10/23 06:01:52;;;;;;;10.37;8.37;;;10.10;99.90;;;;;;5024952;28;20956;-43
2022/10/23 06:04:29;;;;;;;10.43;8.53;;;10.10;99.90;;;;;;5031139;28;20290;-43
2022/10/23 06:07:15;;;;;;;12.00;9.00;;;10.00;99.90;;;;;;5023363;28;21225;-42
2022/10/23 06:09:44;;;;;;;11.00;8.70;;;10.00;99.90;;;;;;5033130;28;20208;-43
2022/10/23 06:12:14;;;;;;;15.23;8.90;;;10.00;99.90;;;;;;5035527;28;20217;-42
2022/10/23 06:14:44;;;;;;;9.87;8.40;;;10.00;99.90;;;;;;5028474;28;20231;-43
2022/10/23 06:17:12;;;;;;;11.87;9.07;;;10.00;99.90;;;;;;5032833;28;20333;-43
2022/10/23 06:19:44;;;;;;;12.10;8.90;;;10.00;99.90;;;;;;5033266;28;20687;-42
2022/10/23 06:22:10;;;;;;;12.60;8.70;;;10.00;99.90;;;;;;5049655;28;20231;-41
2022/10/23 06:24:47;;;;;;;12.73;8.87;;;10.00;99.90;;;;;;5011725;28;20967;-42
2022/10/23 06:27:21;;;;;;;13.57;8.77;;;10.00;99.90;;;;;;5028560;28;20210;-43
2022/10/23 06:29:47;;;;;;;14.33;8.50;;;10.00;99.90;;;;;;5029696;28;20203;-46
2022/10/23 06:32:14;;;;;;;10.77;7.83;;;9.90;99.90;;;;;;5036724;28;20276;-42
2022/10/23 06:34:46;;;;;;;9.73;8.30;;;9.90;99.90;;;;;;5018302;28;20230;-45
2022/10/23 06:37:13;;;;;;;12.67;8.63;;;9.90;99.90;;;;;;5032735;28;20196;-44
2022/10/23 06:39:44;;;;;;;12.33;8.43;;;9.90;99.90;;;;;;5015511;28;20254;-44
2022/10/23 06:42:23;;;;;;;12.50;8.20;;;9.90;99.90;;;;;;5028411;28;20219;-47
2022/10/23 06:44:56;;;;;;;13.93;8.87;;;9.90;99.90;;;;;;5035288;28;21175;-44
2022/10/23 06:47:42;;;;;;;13.90;8.43;;;9.90;99.90;;;;;;5030470;28;20325;-43
2022/10/23 06:50:41;;;;;;;11.83;8.97;;;10.00;99.90;;;;;;5022143;28;20215;-42
2022/10/23 06:53:14;;;;;;;13.23;9.00;;;10.00;99.90;;;;;;5009691;28;20219;-42
2022/10/23 06:55:47;;;;;;;15.03;9.03;;;10.00;99.90;;;;;;5019626;28;20210;-42
2022/10/23 06:58:15;;;;;;;16.40;9.80;;;10.10;99.90;;;;;;5024621;28;20322;-46
2022/10/23 07:01:07;;;;;;;13.67;9.87;;;10.10;99.90;;;;;;5028273;28;20231;-44
2022/10/23 07:03:34;;;;;;;16.40;9.60;;;10.10;99.90;;;;;;5029456;28;20288;-42
2022/10/23 07:06:05;;;;;;;15.63;9.77;;;10.20;99.90;;;;;;5028803;28;20231;-42
2022/10/23 07:08:32;;;;;;;12.07;8.97;;;10.30;99.90;;;;;;5018424;28;20211;-41
2022/10/23 07:11:03;;;;;;;14.17;9.10;;;10.30;99.90;;;;;;5029875;28;20349;-43
2022/10/23 07:13:33;;;;;;;12.23;8.77;;;10.40;99.90;;;;;;5028737;28;20207;-44
2022/10/23 07:16:15;;;;;;;15.53;10.10;;;10.40;99.90;;;;;;5034568;28;20195;-46
2022/10/23 07:18:42;;;;;;;12.47;9.20;;;10.50;99.90;;;;;;5032213;28;20212;-44
2022/10/23 07:21:31;;;;;;;11.77;8.77;;;10.60;99.90;;;;;;5021759;28;20227;-46
2022/10/23 07:24:14;;;;;;;15.20;9.17;;;10.60;99.90;;;;;;5013583;28;20217;-42
2022/10/23 07:26:43;;;;;;;12.13;8.37;;;10.70;99.90;;;;;;5024879;28;20211;-41
2022/10/23 07:29:11;;;;;;;13.80;8.87;;;10.70;99.90;;;;;;5030541;28;20712;-44
2022/10/23 07:31:38;;;;;;;16.23;9.33;;;10.80;99.90;;;;;;5031907;28;20226;-43
2022/10/23 07:34:36;;;;;;;12.53;8.83;;;10.80;99.90;;;;;;5024093;28;20310;-42
2022/10/23 07:37:22;;;;;;;14.97;8.50;;;10.90;99.90;;;;;;5021438;28;20214;-44
2022/10/23 07:39:48;;;;;;;11.60;8.77;;;11.00;99.90;;;;;;5008322;28;20751;-42
2022/10/23 07:42:15;;;;;;;16.00;9.33;;;11.10;99.90;;;;;;5028154;28;20219;-48
2022/10/23 07:44:43;;;;;;;11.30;8.40;;;11.20;99.90;;;;;;5024030;28;20207;-42
2022/10/23 07:47:10;;;;;;;17.30;8.43;;;11.20;99.90;;;;;;5040124;28;20200;-42
2022/10/23 07:49:40;;;;;;;12.73;9.17;;;11.30;99.90;;;;;;5033324;28;20235;-42
2022/10/23 07:52:07;;;;;;;12.20;8.50;;;11.40;99.90;;;;;;5030139;28;22666;-44
2022/10/23 07:54:54;;;;;;;10.20;8.10;;;11.40;99.90;;;;;;5017971;28;20308;-43
2022/10/23 07:57:22;;;;;;;13.10;8.57;;;11.50;99.90;;;;;;5045068;28;20664;-44
2022/10/23 07:59:56;;;;;;;12.60;7.97;;;11.60;99.90;;;;;;5030101;28;20349;-44
2022/10/23 08:02:24;;;;;;;12.77;8.30;;;11.60;99.90;;;;;;5038733;28;20242;-45
2022/10/23 08:04:52;;;;;;;10.67;7.87;;;11.80;99.90;;;;;;5036758;28;20186;-43
2022/10/23 08:07:31;;;;;;;12.07;7.83;;;11.80;99.90;;;;;;5038279;28;20231;-44
2022/10/23 08:09:57;;;;;;;13.50;8.17;;;11.90;99.90;;;;;;5016599;28;20954;-45
2022/10/23 08:12:25;;;;;;;8.60;7.00;;;12.00;99.90;;;;;;5040441;28;20227;-44
2022/10/23 08:14:55;;;;;;;9.57;7.53;;;12.00;99.90;;;;;;5032313;28;20261;-46
2022/10/23 08:17:23;;;;;;;14.07;7.87;;;12.10;99.90;;;;;;5035695;28;20207;-44
2022/10/23 08:20:02;;;;;;;10.13;7.57;;;12.20;99.90;;;;;;5033967;28;20295;-43
2022/10/23 08:22:36;;;;;;;10.03;7.80;;;12.20;99.90;;;;;;5041333;28;20651;-44
2022/10/23 08:25:03;;;;;;;11.93;7.27;;;12.30;99.90;;;;;;5029038;28;20305;-42
2022/10/23 08:27:30;;;;;;;9.87;7.67;;;12.30;99.90;;;;;;5034551;28;20227;-43
2022/10/23 08:29:58;;;;;;;8.70;7.17;;;12.40;99.90;;;;;;5029725;28;20200;-48
2022/10/23 08:32:28;;;;;;;11.73;7.23;;;12.50;99.90;;;;;;5034157;28;20226;-44
2022/10/23 08:34:57;;;;;;;13.87;7.97;;;12.50;99.90;;;;;;5028020;28;21021;-42
2022/10/23 08:37:25;;;;;;;11.17;6.97;;;12.60;99.90;;;;;;5033202;28;20570;-42
2022/10/23 08:39:53;;;;;;;10.13;7.27;;;12.70;99.90;;;;;;5007668;28;20272;-44
2022/10/23 08:42:29;;;;;;;10.47;6.70;;;12.70;99.90;;;;;;5037324;28;20553;-42
2022/10/23 08:45:11;;;;;;;9.77;6.93;;;12.80;99.90;;;;;;5023214;28;20358;-45
2022/10/23 08:47:41;;;;;;;10.70;7.00;;;12.90;99.90;;;;;;5027131;28;20249;-41
2022/10/23 08:50:31;;;;;;;13.87;8.00;;;12.90;99.90;;;;;;5042240;28;20210;-42
2022/10/23 08:53:04;;;;;;;7.20;6.47;;;13.00;99.90;;;;;;5033920;28;20261;-47
2022/10/23 08:55:35;;;;;;;10.03;7.40;;;13.10;99.90;;;;;;5023161;28;20219;-42
2022/10/23 08:58:06;;;;;;;10.20;5.97;;;13.20;99.90;;;;;;5028006;28;20209;-46
2022/10/23 09:00:34;;;;;;;9.37;6.50;;;13.30;99.90;;;;;;5019895;28;20199;-44
2022/10/23 09:03:04;;;;;;;9.80;6.47;;;13.40;99.90;;;;;;5036346;28;20281;-46
2022/10/23 09:05:36;;;;;;;9.47;6.37;;;13.40;99.90;;;;;;5028043;28;20202;-44
2022/10/23 09:08:21;;;;;;;12.40;6.30;;;13.40;99.90;;;;;;5034420;28;20215;-46
2022/10/23 09:11:06;;;;;;;8.03;5.40;;;13.50;99.90;;;;;;5019015;28;20692;-44
2022/10/23 09:13:47;;;;;;;8.50;5.60;;;13.50;99.90;;;;;;5027130;28;20214;-42
2022/10/23 09:16:23;;;;;;;8.67;6.13;;;13.60;99.90;;;;;;5035365;28;20229;-41
2022/10/23 09:18:49;;;;;;;9.67;6.00;;;13.60;99.90;;;;;;5036282;28;20195;-41
2022/10/23 09:21:16;;;;;;;10.03;5.40;;;13.60;99.90;;;;;;5036047;28;20571;-42
2022/10/23 09:23:43;;;;;;;7.40;5.93;;;13.70;99.90;;;;;;5030621;28;20223;-42
2022/10/23 09:26:14;;;;;;;14.33;5.33;;;13.80;99.90;;;;;;5026500;28;20199;-44
2022/10/23 09:28:47;;;;;;;8.37;4.97;;;13.80;99.90;;;;;;5042100;28;20253;-42
2022/10/23 09:31:15;;;;;;;9.03;5.00;;;13.90;99.90;;;;;;5038887;28;20219;-42
2022/10/23 09:33:54;;;;;;;8.00;4.87;;;13.90;99.90;;;;;;5023374;28;20214;-42
2022/10/23 09:36:23;;;;;;;6.63;4.30;;;14.00;99.90;;;;;;5038927;28;20210;-44
2022/10/23 09:38:51;;;;;;;10.13;4.60;;;14.10;99.90;;;;;;5039839;28;20195;-43
2022/10/23 09:41:21;;;;;;;6.23;4.20;;;14.20;99.90;;;;;;5031264;28;20731;-44
2022/10/23 09:44:00;;;;;;;6.47;3.83;;;14.20;99.90;;;;;;5038477;28;20656;-41
2022/10/23 09:46:37;;;;;;;7.20;4.20;;;14.30;99.90;;;;;;5036618;28;20219;-42
2022/10/23 09:49:06;;;;;;;5.70;3.73;;;14.40;99.90;;;;;;5033828;28;20543;-40
2022/10/23 09:51:33;;;;;;;6.63;3.77;;;14.50;99.90;;;;;;5019544;28;20416;-42
2022/10/23 09:54:01;;;;;;;4.57;3.43;;;14.50;99.90;;;;;;5029125;28;20207;-43
2022/10/23 09:56:30;;;;;;;5.87;3.10;;;14.60;99.90;;;;;;5020222;28;20223;-44
2022/10/23 09:58:58;;;;;;;7.97;3.40;;;14.60;99.90;;;;;;5029975;28;20283;-44
2022/10/23 10:01:27;;;;;;;6.10;3.60;;;14.70;99.90;;;;;;5028806;28;20224;-42
2022/10/23 10:03:59;;;;;;;5.87;3.13;;;14.70;99.90;;;;;;5017655;28;20234;-42
2022/10/23 10:06:30;;;;;;;5.43;3.23;;;14.70;99.90;;;;;;5032353;28;20194;-43
2022/10/23 10:08:59;;;;;;;6.00;3.40;;;14.80;99.90;;;;;;5041664;28;20353;-42
2022/10/23 10:11:34;;;;;;;5.63;3.33;;;14.80;99.90;;;;;;5029678;28;20385;-45
2022/10/23 10:14:40;;;;;;;6.70;3.43;;;14.90;99.90;;;;;;5017569;28;20733;-44
2022/10/23 10:17:16;;;;;;;6.00;3.30;;;15.00;99.90;;;;;;5026631;28;20204;-45
2022/10/23 10:20:05;;;;;;;5.87;2.97;;;15.10;99.90;;;;;;5031740;28;20213;-42
2022/10/23 10:22:39;;;;;;;5.83;2.93;;;15.10;99.90;;;;;;5036108;28;20231;-43
2022/10/23 10:25:12;;;;;;;4.50;3.07;;;15.20;99.90;;;;;;5039383;28;20238;-44
2022/10/23 10:27:48;;;;;;;6.47;3.53;;;15.20;99.90;;;;;;5038582;28;20253;-44
2022/10/23 10:30:18;;;;;;;5.07;2.90;;;15.30;99.90;;;;;;5022188;28;20211;-44
2022/10/23 10:32:51;;;;;;;3.73;2.57;;;15.30;99.90;;;;;;5041544;28;20413;-41
2022/10/23 10:35:25;;;;;;;5.30;2.90;;;15.40;99.90;;;;;;5031795;28;20772;-42
2022/10/23 10:38:27;;;;;;;3.60;2.50;;;15.40;99.90;;;;;;5039375;28;20561;-43
2022/10/23 10:41:17;;;;;;;3.47;2.60;;;15.50;99.90;;;;;;5042178;28;20696;-43
2022/10/23 10:43:53;;;;;;;7.57;2.70;;;15.50;99.90;;;;;;5037967;28;20211;-42
2022/10/23 10:46:30;;;;;;;5.97;2.37;;;15.60;99.90;;;;;;5023014;28;20199;-42
2022/10/23 10:49:01;;;;;;;5.80;2.80;;;15.60;99.90;;;;;;5041729;28;20202;-43
2022/10/23 10:51:44;;;;;;;7.20;2.87;;;15.60;99.90;;;;;;5035606;28;22716;-44
2022/10/23 10:54:30;;;;;;;6.40;2.50;;;15.70;99.90;;;;;;5030146;28;20393;-41
2022/10/23 10:57:02;;;;;;;5.60;2.57;;;15.80;99.90;;;;;;5039863;28;20225;-42
2022/10/23 10:59:36;;;;;;;4.93;2.33;;;15.80;99.90;;;;;;5036614;28;20568;-42
2022/10/23 11:02:19;;;;;;;8.00;2.50;;;15.90;99.90;;;;;;5022659;28;20237;-43
2022/10/23 11:04:52;;;;;;;3.80;3.03;;;15.90;99.90;;;;;;5029330;28;20234;-42
2022/10/23 11:07:23;;;;;;;4.37;2.70;;;15.90;99.90;;;;;;5034463;28;20203;-43
2022/10/23 11:09:51;;;;;;;4.80;2.30;;;16.00;99.90;;;;;;5038138;28;20191;-42
2022/10/23 11:12:24;;;;;;;5.43;2.60;;;16.00;99.90;;;;;;5040384;28;20226;-44
2022/10/23 11:14:51;;;;;;;6.40;2.73;;;16.00;99.90;;;;;;5032075;28;20198;-43
2022/10/23 11:17:25;;;;;;;5.93;2.40;;;16.10;99.90;;;;;;5023911;28;20211;-44
2022/10/23 11:20:00;;;;;;;4.87;2.40;;;16.10;99.90;;;;;;5038859;28;20269;-42
2022/10/23 11:22:35;;;;;;;8.17;2.90;;;16.10;99.90;;;;;;5041299;28;20276;-45
2022/10/23 11:25:32;;;;;;;6.00;2.70;;;16.10;99.90;;;;;;5040739;28;20209;-44
2022/10/23 11:28:23;;;;;;;10.83;3.00;;;16.10;99.90;;;;;;5037461;28;20203;-44
2022/10/23 11:31:06;;;;;;;8.80;2.40;;;16.10;99.90;;;;;;5046439;28;20187;-42
2022/10/23 11:34:08;;;;;;;4.50;2.93;;;16.20;99.90;;;;;;5024040;28;20257;-44
2022/10/23 11:36:44;;;;;;;4.70;2.63;;;16.20;99.90;;;;;;5042652;28;20881;-43
2022/10/23 11:39:24;;;;;;;7.73;3.00;;;16.20;99.90;;;;;;5040800;28;20191;-45
2022/10/23 11:41:55;;;;;;;8.60;2.77;;;16.30;99.90;;;;;;5042590;28;20218;-42
2022/10/23 11:44:27;;;;;;;6.40;2.57;;;16.30;99.90;;;;;;5043508;28;20199;-46
2022/10/23 11:47:01;;;;;;;4.80;2.10;;;16.40;99.90;;;;;;5016757;28;20620;-42
2022/10/23 11:49:28;;;;;;;6.57;2.70;;;16.40;99.90;;;;;;5044889;28;20195;-42
2022/10/23 11:52:02;;;;;;;5.33;2.83;;;16.50;99.90;;;;;;5043780;28;20920;-43
2022/10/23 11:54:29;;;;;;;3.27;2.73;;;16.60;99.90;;;;;;5031968;28;20279;-43
2022/10/23 11:57:11;;;;;;;3.23;2.37;;;16.70;99.90;;;;;;5044937;28;20219;-42
2022/10/23 11:59:52;;;;;;;4.60;2.50;;;16.80;99.90;;;;;;5028446;28;20211;-41
2022/10/23 12:02:30;;;;;;;4.63;2.47;;;17.00;99.90;;;;;;5018661;28;20227;-43
2022/10/23 12:05:30;;;;;;;5.43;2.27;;;17.00;99.90;;;;;;5040542;28;20281;-41
2022/10/23 12:08:00;;;;;;;7.87;2.63;;;17.10;99.90;;;;;;5039666;28;20237;-45
2022/10/23 12:10:33;;;;;;;4.77;1.97;;;17.20;99.90;;;;;;5039557;28;20234;-41
2022/10/23 12:13:02;;;;;;;5.07;2.30;;;17.20;99.90;;;;;;5042781;28;20506;-41
2022/10/23 12:15:33;;;;;;;4.07;2.00;;;17.20;99.90;;;;;;5031950;28;20222;-42
2022/10/23 12:18:13;;;;;;;5.30;2.10;;;17.30;99.90;;;;;;5029453;28;20207;-43
2022/10/23 12:20:47;;;;;;;4.10;2.97;;;17.30;99.90;;;;;;5034541;28;20210;-42
2022/10/23 12:23:41;;;;;;;4.63;1.90;;;17.40;99.90;;;;;;5043140;28;20198;-43
2022/10/23 12:26:42;;;;;;;7.50;2.37;;;17.50;99.90;;;;;;5035065;28;20216;-45
2022/10/23 12:29:21;;;;;;;1.93;1.70;;;17.50;99.90;;;;;;5041673;28;20676;-42
2022/10/23 12:31:57;;;;;;;5.97;1.80;;;17.60;99.90;;;;;;5037173;28;20211;-50
2022/10/23 12:34:35;;;;;;;2.47;1.90;;;17.60;99.90;;;;;;5025204;28;20203;-52
2022/10/23 12:37:32;;;;;;;4.10;1.83;;;17.70;99.90;;;;;;5045087;28;20313;-52
2022/10/23 12:40:00;;;;;;;3.57;1.70;;;17.70;99.90;;;;;;5036339;28;20200;-50
2022/10/23 12:42:29;;;;;;;3.60;2.10;;;17.70;99.90;;;;;;5040879;28;20227;-52
2022/10/23 12:44:59;;;;;;;5.37;2.00;;;17.70;99.90;;;;;;5040037;28;20660;-51
2022/10/23 12:47:29;;;;;;;5.70;2.23;;;17.70;99.90;;;;;;5035790;28;20298;-52
2022/10/23 12:49:55;;;;;;;4.47;2.07;;;17.70;99.90;;;;;;5026982;28;20211;-49
2022/10/23 12:52:24;;;;;;;3.70;2.10;;;17.70;99.90;;;;;;5043044;28;20739;-52
2022/10/23 12:54:51;;;;;;;4.50;1.80;;;17.70;99.90;;;;;;5039464;28;20480;-52
2022/10/23 12:57:21;;;;;;;1.80;1.50;;;17.70;99.90;;;;;;5043658;28;20615;-49
2022/10/23 12:59:49;;;;;;;6.07;1.87;;;17.60;99.90;;;;;;5043358;28;20338;-52
2022/10/23 13:02:23;;;;;;;3.47;1.57;;;17.60;99.90;;;;;;5037972;28;20225;-51
2022/10/23 13:04:53;;;;;;;2.23;1.53;;;17.60;99.90;;;;;;5021441;28;20753;-52
2022/10/23 13:07:23;;;;;;;5.80;2.00;;;17.60;99.90;;;;;;5040513;28;20275;-46
2022/10/23 13:09:51;;;;;;;5.20;2.10;;;17.50;99.90;;;;;;5039632;28;20674;-49